Time,TemperatureF,DewpointF,PressureIn,WindDirection,WindDirectionDegrees,WindSpeedMPH,WindSpeedGustMPH,Humidity,HourlyPrecipIn,Conditions,Clouds,dailyrainin,SoftwareType,DateUTC
2013-01-04 00:03:00,6.0,3.7,29.97,South,190,3.0,10.0,90,0.00,,---,0.00,VWS V14.01,2013-01-04 06:03:00,
2013-01-04 00:08:00,6.1,3.8,29.97,South,178,2.0,13.0,90,0.00,,---,0.00,VWS V14.01,2013-01-04 06:08:00,
2013-01-04 00:13:00,6.2,3.9,29.97,South,182,4.0,13.0,90,0.00,,---,0.00,VWS V14.01,2013-01-04 06:13:00,
2013-01-04 00:18:00,6.3,4.0,29.97,South,182,5.0,13.0,90,0.00,,---,0.00,VWS V14.01,2013-01-04 06:18:00,
2013-01-04 00:23:00,6.3,4.0,29.97,SSW,196,2.0,13.0,90,0.00,,---,0.00,VWS V14.01,2013-01-04 06:23:00,
2013-01-04 00:28:00,6.5,4.2,29.97,South,183,3.0,13.0,90,0.00,,---,0.00,VWS V14.01,2013-01-04 06:28:00,
2013-01-04 00:33:00,6.6,4.3,29.97,SSW,196,1.0,10.0,90,0.00,,---,0.00,VWS V14.01,2013-01-04 06:33:00,
2013-01-04 00:38:00,6.5,4.2,29.96,South,182,4.0,10.0,90,0.00,,---,0.00,VWS V14.01,2013-01-04 06:38:00,
2013-01-04 00:43:00,6.7,4.4,29.96,SSW,196,3.0,12.0,90,0.00,,---,0.00,VWS V14.01,2013-01-04 06:43:00,
2013-01-04 00:48:00,6.6,4.3,29.96,SSE,148,2.0,12.0,90,0.00,,---,0.00,VWS V14.01,2013-01-04 06:48:00,
2013-01-04 00:53:00,6.8,4.5,29.95,SSE,167,6.0,12.0,90,0.00,,---,0.00,VWS V14.01,2013-01-04 06:53:00,
2013-01-04 00:58:00,6.8,4.5,29.95,SSE,161,2.0,12.0,90,0.00,,---,0.00,VWS V14.01,2013-01-04 06:58:00,
2013-01-04 01:03:00,6.8,4.5,29.94,South,184,7.0,7.0,90,0.00,,---,0.00,VWS V14.01,2013-01-04 07:03:00,
2013-01-04 01:08:00,6.7,4.4,29.94,SSE,162,9.0,11.0,90,0.00,,---,0.00,VWS V14.01,2013-01-04 07:08:00,
2013-01-04 01:13:00,6.8,4.5,29.93,South,169,4.0,13.0,90,0.00,,---,0.00,VWS V14.01,2013-01-04 07:13:00,
2013-01-04 01:18:00,6.9,4.8,29.93,SSW,194,9.0,13.0,91,0.00,,---,0.00,VWS V14.01,2013-01-04 07:18:00,
2013-01-04 01:23:00,7.0,4.9,29.93,South,189,2.0,13.0,91,0.00,,---,0.00,VWS V14.01,2013-01-04 07:23:00,
2013-01-04 01:28:00,7.1,5.0,29.93,SSW,192,3.0,13.0,91,0.00,,---,0.00,VWS V14.01,2013-01-04 07:28:00,
2013-01-04 01:33:00,7.2,5.1,29.93,SSE,166,3.0,11.0,91,0.00,,---,0.00,VWS V14.01,2013-01-04 07:33:00,
2013-01-04 01:38:00,7.2,5.1,29.93,South,170,5.0,11.0,91,0.00,,---,0.00,VWS V14.01,2013-01-04 07:38:00,
2013-01-04 01:43:00,7.2,5.1,29.92,SSW,205,5.0,13.0,91,0.00,,---,0.00,VWS V14.01,2013-01-04 07:43:00,
2013-01-04 01:48:00,7.3,5.2,29.92,South,188,6.0,13.0,91,0.00,,---,0.00,VWS V14.01,2013-01-04 07:48:00,
2013-01-04 01:53:00,7.6,5.5,29.92,SSW,209,3.0,13.0,91,0.00,,---,0.00,VWS V14.01,2013-01-04 07:53:00,
2013-01-04 01:58:00,7.7,5.6,29.92,South,190,5.0,13.0,91,0.00,,---,0.00,VWS V14.01,2013-01-04 07:58:00,
2013-01-04 02:03:00,7.9,5.8,29.91,SSE,168,4.0,11.0,91,0.00,,---,0.00,VWS V14.01,2013-01-04 08:03:00,
2013-01-04 02:08:00,8.0,5.9,29.92,SSE,150,4.0,12.0,91,0.00,,---,0.00,VWS V14.01,2013-01-04 08:08:00,
2013-01-04 02:13:00,8.1,6.0,29.91,South,187,1.0,12.0,91,0.00,,---,0.00,VWS V14.01,2013-01-04 08:13:00,
2013-01-04 02:18:00,8.2,6.1,29.92,South,169,2.0,12.0,91,0.00,,---,0.00,VWS V14.01,2013-01-04 08:18:00,
2013-01-04 02:23:00,8.1,6.0,29.92,South,175,0.0,13.0,91,0.00,,---,0.00,VWS V14.01,2013-01-04 08:23:00,
2013-01-04 02:28:00,7.9,5.6,29.92,South,176,2.0,13.0,90,0.00,,---,0.00,VWS V14.01,2013-01-04 08:28:00,
2013-01-04 02:33:00,7.6,5.3,29.91,SSE,157,2.0,3.0,90,0.00,,---,0.00,VWS V14.01,2013-01-04 08:33:00,
2013-01-04 02:38:00,7.1,4.6,29.91,South,175,0.0,3.0,89,0.00,,---,0.00,VWS V14.01,2013-01-04 08:38:00,
2013-01-04 02:43:00,6.5,4.0,29.91,SSE,168,3.0,4.0,89,0.00,,---,0.00,VWS V14.01,2013-01-04 08:43:00,
2013-01-04 02:48:00,6.1,3.6,29.91,SSW,192,6.0,6.0,89,0.00,,---,0.00,VWS V14.01,2013-01-04 08:48:00,
2013-01-04 02:53:00,5.9,3.6,29.91,South,175,1.0,6.0,90,0.00,,---,0.00,VWS V14.01,2013-01-04 08:53:00,
2013-01-04 02:58:00,5.8,3.5,29.91,SSE,163,2.0,6.0,90,0.00,,---,0.00,VWS V14.01,2013-01-04 08:58:00,
2013-01-04 03:03:00,5.7,3.4,29.91,SSE,159,2.0,3.0,90,0.00,,---,0.00,VWS V14.01,2013-01-04 09:03:00,
2013-01-04 03:08:00,5.8,3.5,29.92,SSE,156,2.0,9.0,90,0.00,,---,0.00,VWS V14.01,2013-01-04 09:08:00,
2013-01-04 03:13:00,5.9,3.6,29.92,SSE,162,1.0,9.0,90,0.00,,---,0.00,VWS V14.01,2013-01-04 09:13:00,
2013-01-04 03:18:00,5.9,3.6,29.92,South,180,3.0,9.0,90,0.00,,---,0.00,VWS V14.01,2013-01-04 09:18:00,
2013-01-04 03:23:00,6.2,4.1,29.92,South,182,3.0,9.0,91,0.00,,---,0.00,VWS V14.01,2013-01-04 09:23:00,
2013-01-04 03:28:00,6.5,4.4,29.92,South,171,4.0,9.0,91,0.00,,---,0.00,VWS V14.01,2013-01-04 09:28:00,
2013-01-04 03:33:00,6.7,4.6,29.91,South,175,2.0,7.0,91,0.00,,---,0.00,VWS V14.01,2013-01-04 09:33:00,
2013-01-04 03:38:00,6.9,4.8,29.91,South,171,1.0,7.0,91,0.00,,---,0.00,VWS V14.01,2013-01-04 09:38:00,
2013-01-04 03:43:00,7.3,5.5,29.91,South,175,4.0,7.0,92,0.00,,---,0.00,VWS V14.01,2013-01-04 09:43:00,
2013-01-04 03:48:00,7.7,5.9,29.90,SSW,192,6.0,10.0,92,0.00,,---,0.00,VWS V14.01,2013-01-04 09:48:00,
2013-01-04 03:53:00,7.9,5.8,29.91,South,173,2.0,10.0,91,0.00,,---,0.00,VWS V14.01,2013-01-04 09:53:00,
2013-01-04 03:58:00,7.9,5.8,29.90,SSE,165,0.0,10.0,91,0.00,,---,0.00,VWS V14.01,2013-01-04 09:58:00,
2013-01-04 04:03:00,7.7,5.6,29.90,SSE,156,1.0,6.0,91,0.00,,---,0.00,VWS V14.01,2013-01-04 10:03:00,
2013-01-04 04:08:00,7.6,5.5,29.90,South,188,2.0,7.0,91,0.00,,---,0.00,VWS V14.01,2013-01-04 10:08:00,
2013-01-04 04:13:00,7.5,5.4,29.90,SSW,192,5.0,8.0,91,0.00,,---,0.00,VWS V14.01,2013-01-04 10:13:00,
2013-01-04 04:18:00,7.5,5.2,29.90,SSE,153,1.0,8.0,90,0.00,,---,0.00,VWS V14.01,2013-01-04 10:18:00,
2013-01-04 04:23:00,7.4,5.3,29.89,South,184,4.0,8.0,91,0.00,,---,0.00,VWS V14.01,2013-01-04 10:23:00,
2013-01-04 04:28:00,7.6,5.5,29.89,SSE,164,3.0,10.0,91,0.00,,---,0.00,VWS V14.01,2013-01-04 10:28:00,
2013-01-04 04:33:00,7.6,5.5,29.89,South,180,6.0,7.0,91,0.00,,---,0.00,VWS V14.01,2013-01-04 10:33:00,
2013-01-04 04:38:00,7.7,5.6,29.88,South,182,6.0,11.0,91,0.00,,---,0.00,VWS V14.01,2013-01-04 10:38:00,
2013-01-04 04:43:00,7.9,5.8,29.88,SSE,168,3.0,11.0,91,0.00,,---,0.00,VWS V14.01,2013-01-04 10:43:00,
2013-01-04 04:48:00,8.1,6.0,29.88,South,188,4.0,11.0,91,0.00,,---,0.00,VWS V14.01,2013-01-04 10:48:00,
2013-01-04 04:53:00,8.4,6.6,29.88,South,182,4.0,11.0,92,0.00,,---,0.00,VWS V14.01,2013-01-04 10:53:00,
2013-01-04 04:58:00,8.6,6.5,29.89,SSE,162,3.0,11.0,91,0.00,,---,0.00,VWS V14.01,2013-01-04 10:58:00,
2013-01-04 05:03:00,8.8,6.9,29.89,South,184,3.0,6.0,92,0.00,,---,0.00,VWS V14.01,2013-01-04 11:03:00,
2013-01-04 05:08:00,8.9,6.8,29.89,SSW,198,4.0,6.0,91,0.00,,---,0.00,VWS V14.01,2013-01-04 11:08:00,
2013-01-04 05:13:00,9.0,7.2,29.89,South,186,2.0,6.0,92,0.00,,---,0.00,VWS V14.01,2013-01-04 11:13:00,
2013-01-04 05:18:00,9.1,7.0,29.89,South,179,6.0,6.0,91,0.00,,---,0.00,VWS V14.01,2013-01-04 11:18:00,
2013-01-04 05:23:00,9.4,7.6,29.89,South,176,2.0,9.0,92,0.00,,---,0.00,VWS V14.01,2013-01-04 11:23:00,
2013-01-04 05:28:00,9.4,7.3,29.89,South,188,5.0,9.0,91,0.00,,---,0.00,VWS V14.01,2013-01-04 11:28:00,
2013-01-04 05:33:00,9.6,7.8,29.89,SSW,213,2.0,6.0,92,0.00,,---,0.00,VWS V14.01,2013-01-04 11:33:00,
2013-01-04 05:38:00,9.6,7.8,29.89,South,180,4.0,6.0,92,0.00,,---,0.00,VWS V14.01,2013-01-04 11:38:00,
2013-01-04 05:43:00,9.8,7.7,29.89,South,178,1.0,7.0,91,0.00,,---,0.00,VWS V14.01,2013-01-04 11:43:00,
2013-01-04 05:48:00,9.7,7.6,29.89,South,188,3.0,9.0,91,0.00,,---,0.00,VWS V14.01,2013-01-04 11:48:00,
2013-01-04 05:53:00,9.8,7.7,29.89,South,178,2.0,9.0,91,0.00,,---,0.00,VWS V14.01,2013-01-04 11:53:00,
2013-01-04 05:58:00,9.8,7.7,29.88,South,171,3.0,9.0,91,0.00,,---,0.00,VWS V14.01,2013-01-04 11:58:00,
2013-01-04 06:03:00,9.7,7.6,29.88,South,189,2.0,10.0,91,0.00,,---,0.00,VWS V14.01,2013-01-04 12:03:00,
2013-01-04 06:08:00,9.7,7.6,29.88,South,171,1.0,10.0,91,0.00,,---,0.00,VWS V14.01,2013-01-04 12:08:00,
2013-01-04 06:13:00,9.6,7.5,29.88,South,181,3.0,10.0,91,0.00,,---,0.00,VWS V14.01,2013-01-04 12:13:00,
2013-01-04 06:18:00,9.7,7.6,29.88,SSE,161,2.0,10.0,91,0.00,,---,0.00,VWS V14.01,2013-01-04 12:18:00,
2013-01-04 06:23:00,9.6,7.5,29.88,South,173,6.0,10.0,91,0.00,,---,0.00,VWS V14.01,2013-01-04 12:23:00,
2013-01-04 06:28:00,9.6,7.5,29.88,SSE,163,1.0,10.0,91,0.00,,---,0.00,VWS V14.01,2013-01-04 12:28:00,
2013-01-04 06:33:00,9.6,7.5,29.88,SSE,166,4.0,7.0,91,0.00,,---,0.00,VWS V14.01,2013-01-04 12:33:00,
2013-01-04 06:38:00,9.6,7.5,29.88,SSE,150,2.0,7.0,91,0.00,,---,0.00,VWS V14.01,2013-01-04 12:38:00,
2013-01-04 06:43:00,9.8,7.9,29.89,SSE,158,1.0,7.0,92,0.00,,---,0.00,VWS V14.01,2013-01-04 12:43:00,
2013-01-04 06:48:00,9.8,7.7,29.89,South,173,4.0,8.0,91,0.00,,---,0.00,VWS V14.01,2013-01-04 12:48:00,
2013-01-04 06:53:00,9.7,7.6,29.88,South,173,2.0,8.0,91,0.00,,---,0.00,VWS V14.01,2013-01-04 12:53:00,
2013-01-04 06:58:00,9.6,7.5,29.89,South,178,2.0,8.0,91,0.00,,---,0.00,VWS V14.01,2013-01-04 12:58:00,
2013-01-04 07:03:00,9.6,7.5,29.89,South,184,3.0,4.0,91,0.00,,---,0.00,VWS V14.01,2013-01-04 13:03:00,
2013-01-04 07:08:00,9.9,7.8,29.89,South,191,6.0,6.0,91,0.00,,---,0.00,VWS V14.01,2013-01-04 13:08:00,
2013-01-04 07:13:00,10.0,8.1,29.89,SSE,157,3.0,6.0,92,0.00,,---,0.00,VWS V14.01,2013-01-04 13:13:00,
2013-01-04 07:18:00,10.2,8.3,29.89,South,181,2.0,7.0,92,0.00,,---,0.00,VWS V14.01,2013-01-04 13:18:00,
2013-01-04 07:23:00,10.5,8.6,29.89,South,176,2.0,8.0,92,0.00,,---,0.00,VWS V14.01,2013-01-04 13:23:00,
2013-01-04 07:28:00,10.6,8.7,29.89,SSE,163,2.0,8.0,92,0.00,,---,0.00,VWS V14.01,2013-01-04 13:28:00,
2013-01-04 07:33:00,10.5,8.4,29.89,South,178,1.0,4.0,91,0.00,,---,0.00,VWS V14.01,2013-01-04 13:33:00,
2013-01-04 07:38:00,10.5,8.4,29.89,South,180,3.0,5.0,91,0.00,,---,0.00,VWS V14.01,2013-01-04 13:38:00,
2013-01-04 07:43:00,10.4,8.3,29.88,South,171,2.0,5.0,91,0.00,,---,0.00,VWS V14.01,2013-01-04 13:43:00,
2013-01-04 07:48:00,10.4,8.3,29.89,South,175,2.0,7.0,91,0.00,,---,0.00,VWS V14.01,2013-01-04 13:48:00,
2013-01-04 07:53:00,10.3,8.2,29.89,South,187,4.0,7.0,91,0.00,,---,0.00,VWS V14.01,2013-01-04 13:53:00,
2013-01-04 07:58:00,10.2,8.1,29.89,SSW,196,3.0,7.0,91,0.00,,---,0.00,VWS V14.01,2013-01-04 13:58:00,
2013-01-04 08:03:00,10.0,7.9,29.89,South,171,2.0,5.0,91,0.00,,---,0.00,VWS V14.01,2013-01-04 14:03:00,
2013-01-04 08:08:00,9.9,7.8,29.89,South,186,4.0,5.0,91,0.00,,---,0.00,VWS V14.01,2013-01-04 14:08:00,
2013-01-04 08:13:00,9.9,7.8,29.90,SSW,198,3.0,7.0,91,0.00,,---,0.00,VWS V14.01,2013-01-04 14:13:00,
2013-01-04 08:18:00,10.1,8.2,29.90,South,191,4.0,7.0,92,0.00,,---,0.00,VWS V14.01,2013-01-04 14:18:00,
2013-01-04 08:23:00,10.4,8.5,29.90,South,186,2.0,7.0,92,0.00,,---,0.00,VWS V14.01,2013-01-04 14:23:00,
2013-01-04 08:28:00,10.6,8.7,29.90,South,177,2.0,7.0,92,0.00,,---,0.00,VWS V14.01,2013-01-04 14:28:00,
2013-01-04 08:33:00,10.8,8.9,29.90,South,182,3.0,5.0,92,0.00,,---,0.00,VWS V14.01,2013-01-04 14:33:00,
2013-01-04 08:38:00,11.0,9.1,29.90,South,186,2.0,6.0,92,0.00,,---,0.00,VWS V14.01,2013-01-04 14:38:00,
2013-01-04 08:43:00,11.2,9.3,29.90,SSW,192,5.0,6.0,92,0.00,,---,0.00,VWS V14.01,2013-01-04 14:43:00,
2013-01-04 08:48:00,11.4,9.5,29.91,South,182,1.0,6.0,92,0.00,,---,0.00,VWS V14.01,2013-01-04 14:48:00,
2013-01-04 08:53:00,11.6,9.7,29.91,South,182,3.0,10.0,92,0.00,,---,0.00,VWS V14.01,2013-01-04 14:53:00,
2013-01-04 08:58:00,11.9,10.0,29.91,South,182,4.0,10.0,92,0.00,,---,0.00,VWS V14.01,2013-01-04 14:58:00,
2013-01-04 09:03:00,12.1,10.2,29.91,South,188,5.0,7.0,92,0.00,,---,0.00,VWS V14.01,2013-01-04 15:03:00,
2013-01-04 09:08:00,12.5,10.6,29.91,South,184,4.0,7.0,92,0.00,,---,0.00,VWS V14.01,2013-01-04 15:08:00,
2013-01-04 09:13:00,12.8,10.9,29.91,South,171,2.0,7.0,92,0.00,,---,0.00,VWS V14.01,2013-01-04 15:13:00,
2013-01-04 09:18:00,13.1,11.2,29.91,SSW,196,3.0,7.0,92,0.00,,---,0.00,VWS V14.01,2013-01-04 15:18:00,
2013-01-04 09:23:00,13.6,12.0,29.92,SSW,193,5.0,8.0,93,0.00,,---,0.00,VWS V14.01,2013-01-04 15:23:00,
2013-01-04 09:28:00,14.0,12.1,29.92,South,171,2.0,8.0,92,0.00,,---,0.00,VWS V14.01,2013-01-04 15:28:00,
2013-01-04 09:33:00,14.5,12.9,29.92,South,179,3.0,8.0,93,0.00,,---,0.00,VWS V14.01,2013-01-04 15:33:00,
2013-01-04 09:38:00,15.0,13.3,29.92,South,180,4.0,8.0,93,0.00,,---,0.00,VWS V14.01,2013-01-04 15:38:00,
2013-01-04 09:43:00,15.4,13.7,29.92,SSW,200,4.0,8.0,93,0.00,,---,0.00,VWS V14.01,2013-01-04 15:43:00,
2013-01-04 09:48:00,16.0,14.3,29.92,SW,216,8.0,8.0,93,0.00,,---,0.00,VWS V14.01,2013-01-04 15:48:00,
2013-01-04 09:53:00,16.7,15.0,29.93,SSW,192,7.0,9.0,93,0.00,,---,0.00,VWS V14.01,2013-01-04 15:53:00,
2013-01-04 09:58:00,17.3,15.4,29.93,SSW,192,6.0,9.0,92,0.00,,---,0.00,VWS V14.01,2013-01-04 15:58:00,
2013-01-04 10:03:00,17.9,16.0,29.93,SSW,204,1.0,9.0,92,0.00,,---,0.00,VWS V14.01,2013-01-04 16:03:00,
2013-01-04 10:08:00,18.3,16.4,29.93,SSW,194,6.0,10.0,92,0.00,,---,0.00,VWS V14.01,2013-01-04 16:08:00,
2013-01-04 10:13:00,18.8,16.6,29.93,SSW,206,2.0,10.0,91,0.00,,---,0.00,VWS V14.01,2013-01-04 16:13:00,
2013-01-04 10:18:00,19.3,17.1,29.93,SW,225,3.0,10.0,91,0.00,,---,0.00,VWS V14.01,2013-01-04 16:18:00,
2013-01-04 10:23:00,19.7,17.0,29.93,SW,227,5.0,10.0,89,0.00,,---,0.00,VWS V14.01,2013-01-04 16:23:00,
2013-01-04 10:28:00,20.4,17.4,29.94,SW,230,5.0,10.0,88,0.00,,---,0.00,VWS V14.01,2013-01-04 16:28:00,
2013-01-04 10:33:00,21.0,17.8,29.94,WSW,239,3.0,10.0,87,0.00,,---,0.00,VWS V14.01,2013-01-04 16:33:00,
2013-01-04 10:38:00,21.8,17.7,29.94,SW,227,5.0,12.0,84,0.00,,---,0.00,VWS V14.01,2013-01-04 16:38:00,
2013-01-04 10:43:00,22.4,17.5,29.93,West,260,6.0,12.0,81,0.00,,---,0.00,VWS V14.01,2013-01-04 16:43:00,
2013-01-04 10:48:00,22.8,17.6,29.93,WSW,243,3.0,13.0,80,0.00,,---,0.00,VWS V14.01,2013-01-04 16:48:00,
2013-01-04 10:53:00,23.1,17.3,29.93,NW,307,7.0,14.0,78,0.00,,---,0.00,VWS V14.01,2013-01-04 16:53:00,
2013-01-04 10:58:00,23.4,17.3,29.93,WSW,248,15.0,15.0,77,0.00,,---,0.00,VWS V14.01,2013-01-04 16:58:00,
2013-01-04 11:03:00,23.5,17.1,29.93,SSW,204,4.0,14.0,76,0.00,,---,0.00,VWS V14.01,2013-01-04 17:03:00,
2013-01-04 11:08:00,23.9,17.1,29.93,SW,216,10.0,14.0,75,0.00,,---,0.00,VWS V14.01,2013-01-04 17:08:00,
2013-01-04 11:13:00,24.0,16.9,29.93,SW,229,15.0,17.0,74,0.00,,---,0.00,VWS V14.01,2013-01-04 17:13:00,
2013-01-04 11:18:00,24.2,17.1,29.94,WSW,250,7.0,17.0,74,0.00,,---,0.00,VWS V14.01,2013-01-04 17:18:00,
2013-01-04 11:23:00,24.3,16.9,29.94,West,263,3.0,17.0,73,0.00,,---,0.00,VWS V14.01,2013-01-04 17:23:00,
2013-01-04 11:28:00,24.5,17.1,29.94,WSW,258,11.0,17.0,73,0.00,,---,0.00,VWS V14.01,2013-01-04 17:28:00,
2013-01-04 11:33:00,24.6,16.9,29.94,WSW,254,10.0,15.0,72,0.00,,---,0.00,VWS V14.01,2013-01-04 17:33:00,
2013-01-04 11:38:00,24.8,16.8,29.94,WSW,253,9.0,15.0,71,0.00,,---,0.00,VWS V14.01,2013-01-04 17:38:00,
2013-01-04 11:43:00,25.0,17.3,29.94,SW,217,4.0,15.0,72,0.00,,---,0.00,VWS V14.01,2013-01-04 17:43:00,
2013-01-04 11:48:00,25.4,17.3,29.94,WSW,241,10.0,15.0,71,0.00,,---,0.00,VWS V14.01,2013-01-04 17:48:00,
2013-01-04 11:53:00,25.4,17.3,29.93,West,267,10.0,16.0,71,0.00,,---,0.00,VWS V14.01,2013-01-04 17:53:00,
2013-01-04 12:00:00,25.5,17.1,29.94,West,267,12.0,16.0,70,0.00,,---,0.00,VWS V14.01,2013-01-04 18:00:00,
2013-01-04 12:05:00,25.8,17.4,29.94,SW,234,4.0,10.0,70,0.00,,---,0.00,VWS V14.01,2013-01-04 18:05:00,
2013-01-04 12:10:00,26.5,18.0,29.93,West,261,9.0,10.0,70,0.00,,---,0.00,VWS V14.01,2013-01-04 18:10:00,
2013-01-04 12:15:00,26.7,17.6,29.93,South,177,8.0,16.0,68,0.00,,---,0.00,VWS V14.01,2013-01-04 18:15:00,
2013-01-04 12:20:00,26.8,17.7,29.93,SW,229,9.0,16.0,68,0.00,,---,0.00,VWS V14.01,2013-01-04 18:20:00,
2013-01-04 12:25:00,26.9,17.8,29.93,WSW,248,9.0,16.0,68,0.00,,---,0.00,VWS V14.01,2013-01-04 18:25:00,
2013-01-04 12:30:00,26.8,17.3,29.93,SW,216,4.0,16.0,67,0.00,,---,0.00,VWS V14.01,2013-01-04 18:30:00,
2013-01-04 12:35:00,27.0,17.9,29.93,West,269,12.0,13.0,68,0.00,,---,0.00,VWS V14.01,2013-01-04 18:35:00,
2013-01-04 12:40:00,27.0,17.5,29.93,WSW,251,8.0,13.0,67,0.00,,---,0.00,VWS V14.01,2013-01-04 18:40:00,
2013-01-04 12:45:00,27.1,17.6,29.92,West,263,9.0,13.0,67,0.00,,---,0.00,VWS V14.01,2013-01-04 18:45:00,
2013-01-04 12:50:00,27.2,17.7,29.92,SW,232,5.0,13.0,67,0.00,,---,0.00,VWS V14.01,2013-01-04 18:50:00,
2013-01-04 12:55:00,27.5,17.6,29.92,WSW,243,7.0,13.0,66,0.00,,---,0.00,VWS V14.01,2013-01-04 18:55:00,
2013-01-04 13:00:00,27.9,18.4,29.92,SW,227,7.0,13.0,67,0.00,,---,0.00,VWS V14.01,2013-01-04 19:00:00,
2013-01-04 13:05:00,28.2,18.3,29.92,WSW,250,7.0,11.0,66,0.00,,---,0.00,VWS V14.01,2013-01-04 19:05:00,
2013-01-04 13:10:00,28.3,18.1,29.92,South,180,6.0,12.0,65,0.00,,---,0.00,VWS V14.01,2013-01-04 19:10:00,
2013-01-04 13:15:00,28.8,18.5,29.92,SW,217,12.0,12.0,65,0.00,,---,0.00,VWS V14.01,2013-01-04 19:15:00,
2013-01-04 13:20:00,28.9,18.6,29.92,WSW,246,5.0,12.0,65,0.00,,---,0.00,VWS V14.01,2013-01-04 19:20:00,
2013-01-04 13:25:00,29.4,18.7,29.92,WSW,258,12.0,12.0,64,0.00,,---,0.00,VWS V14.01,2013-01-04 19:25:00,
2013-01-04 13:30:00,29.5,18.8,29.92,WSW,238,6.0,10.0,64,0.00,,---,0.00,VWS V14.01,2013-01-04 19:30:00,
2013-01-04 13:35:00,29.3,18.3,29.92,SW,226,12.0,14.0,63,0.00,,---,0.00,VWS V14.01,2013-01-04 19:35:00,
2013-01-04 13:40:00,29.3,18.6,29.92,SSW,208,16.0,16.0,64,0.00,,---,0.00,VWS V14.01,2013-01-04 19:40:00,
2013-01-04 13:45:00,29.3,18.3,29.93,SW,216,4.0,18.0,63,0.00,,---,0.00,VWS V14.01,2013-01-04 19:45:00,
2013-01-04 13:50:00,29.7,18.7,29.93,South,185,7.0,18.0,63,0.00,,---,0.00,VWS V14.01,2013-01-04 19:50:00,
2013-01-04 13:55:00,29.7,18.7,29.93,SSW,211,12.0,18.0,63,0.00,,---,0.00,VWS V14.01,2013-01-04 19:55:00,
2013-01-04 14:00:00,29.7,17.9,29.93,SSW,208,10.0,10.0,61,0.00,,---,0.00,VWS V14.01,2013-01-04 20:00:00,
2013-01-04 14:05:00,29.7,18.3,29.93,SSW,200,5.0,14.0,62,0.00,,---,0.00,VWS V14.01,2013-01-04 20:05:00,
2013-01-04 14:10:00,29.9,18.5,29.93,SW,235,6.0,14.0,62,0.00,,---,0.00,VWS V14.01,2013-01-04 20:10:00,
2013-01-04 14:15:00,30.0,18.6,29.93,SW,231,7.0,14.0,62,0.00,,---,0.00,VWS V14.01,2013-01-04 20:15:00,
2013-01-04 14:21:00,30.4,18.6,29.94,WSW,242,4.0,14.0,61,0.00,,---,0.00,VWS V14.01,2013-01-04 20:21:00,
2013-01-04 14:26:00,30.4,18.6,29.94,WSW,248,6.0,14.0,61,0.00,,---,0.00,VWS V14.01,2013-01-04 20:26:00,
2013-01-04 14:31:00,30.2,19.1,29.94,SSW,211,5.0,10.0,63,0.00,,---,0.00,VWS V14.01,2013-01-04 20:31:00,
2013-01-04 14:36:00,30.5,19.0,29.94,WSW,245,5.0,12.0,62,0.00,,---,0.00,VWS V14.01,2013-01-04 20:36:00,
2013-01-04 14:43:00,30.7,18.9,29.94,SW,222,6.0,12.0,61,0.00,,---,0.00,VWS V14.01,2013-01-04 20:43:00,
2013-01-04 14:48:00,30.4,18.6,29.94,SW,235,10.0,16.0,61,0.00,,---,0.00,VWS V14.01,2013-01-04 20:48:00,
2013-01-04 14:53:00,30.5,18.7,29.94,SSW,194,4.0,16.0,61,0.00,,---,0.00,VWS V14.01,2013-01-04 20:53:00,
2013-01-04 14:58:00,30.3,18.5,29.94,SSW,195,9.0,16.0,61,0.00,,---,0.00,VWS V14.01,2013-01-04 20:58:00,
2013-01-04 15:03:00,30.4,19.0,29.94,SSW,192,3.0,9.0,62,0.00,,---,0.00,VWS V14.01,2013-01-04 21:03:00,
2013-01-04 15:08:00,30.7,19.2,29.94,SSW,203,8.0,10.0,62,0.00,,---,0.00,VWS V14.01,2013-01-04 21:08:00,
2013-01-04 15:13:00,30.8,19.3,29.94,South,179,2.0,10.0,62,0.00,,---,0.00,VWS V14.01,2013-01-04 21:13:00,
2013-01-04 15:19:00,30.7,19.2,29.95,SW,229,7.0,13.0,62,0.00,,---,0.00,VWS V14.01,2013-01-04 21:19:00,
2013-01-04 15:24:00,30.4,18.6,29.95,South,182,8.0,14.0,61,0.00,,---,0.00,VWS V14.01,2013-01-04 21:24:00,
2013-01-04 15:30:00,30.1,18.3,29.95,South,191,4.0,14.0,61,0.00,,---,0.00,VWS V14.01,2013-01-04 21:30:00,
2013-01-04 15:35:00,30.0,18.6,29.95,SSW,212,4.0,15.0,62,0.00,,---,0.00,VWS V14.01,2013-01-04 21:35:00,
2013-01-04 15:40:00,30.1,18.7,29.95,SSW,195,8.0,15.0,62,0.00,,---,0.00,VWS V14.01,2013-01-04 21:40:00,
2013-01-04 15:45:00,29.9,18.5,29.95,South,183,3.0,15.0,62,0.00,,---,0.00,VWS V14.01,2013-01-04 21:45:00,
2013-01-04 15:50:00,29.7,18.3,29.95,SSW,204,9.0,17.0,62,0.00,,---,0.00,VWS V14.01,2013-01-04 21:50:00,
2013-01-04 15:55:00,29.4,18.4,29.95,SW,230,11.0,17.0,63,0.00,,---,0.00,VWS V14.01,2013-01-04 21:55:00,
2013-01-04 16:00:00,29.1,18.1,29.96,SSW,194,4.0,12.0,63,0.00,,---,0.00,VWS V14.01,2013-01-04 22:00:00,
2013-01-04 16:05:00,29.0,18.4,29.96,SW,231,8.0,12.0,64,0.00,,---,0.00,VWS V14.01,2013-01-04 22:05:00,
2013-01-04 16:10:00,28.8,18.2,29.96,SSW,211,10.0,12.0,64,0.00,,---,0.00,VWS V14.01,2013-01-04 22:10:00,
2013-01-04 16:15:00,28.8,18.2,29.96,South,178,6.0,12.0,64,0.00,,---,0.00,VWS V14.01,2013-01-04 22:15:00,
2013-01-04 16:20:00,28.6,18.3,29.96,South,185,3.0,12.0,65,0.00,,---,0.00,VWS V14.01,2013-01-04 22:20:00,
2013-01-04 16:25:00,28.5,18.2,29.97,SSW,192,4.0,12.0,65,0.00,,---,0.00,VWS V14.01,2013-01-04 22:25:00,
2013-01-04 16:30:00,28.2,18.0,29.97,SSW,204,5.0,6.0,65,0.00,,---,0.00,VWS V14.01,2013-01-04 22:30:00,
2013-01-04 16:35:00,28.0,18.1,29.97,SE,128,2.0,7.0,66,0.00,,---,0.00,VWS V14.01,2013-01-04 22:35:00,
2013-01-04 16:40:00,27.6,17.7,29.97,South,181,2.0,7.0,66,0.00,,---,0.00,VWS V14.01,2013-01-04 22:40:00,
2013-01-04 16:45:00,27.3,17.8,29.97,SSW,194,3.0,7.0,67,0.00,,---,0.00,VWS V14.01,2013-01-04 22:45:00,
2013-01-04 16:50:00,27.1,17.6,29.97,SSW,213,5.0,7.0,67,0.00,,---,0.00,VWS V14.01,2013-01-04 22:50:00,
2013-01-04 16:55:00,27.0,17.9,29.97,SSW,198,3.0,7.0,68,0.00,,---,0.00,VWS V14.01,2013-01-04 22:55:00,
2013-01-04 17:00:00,26.8,17.7,29.97,South,181,2.0,3.0,68,0.00,,---,0.00,VWS V14.01,2013-01-04 23:00:00,
2013-01-04 17:05:00,26.6,17.5,29.97,South,186,2.0,6.0,68,0.00,,---,0.00,VWS V14.01,2013-01-04 23:05:00,
2013-01-04 17:10:00,26.5,17.7,29.98,South,183,2.0,6.0,69,0.00,,---,0.00,VWS V14.01,2013-01-04 23:10:00,
2013-01-04 17:15:00,26.4,17.6,29.98,South,184,3.0,10.0,69,0.00,,---,0.00,VWS V14.01,2013-01-04 23:15:00,
2013-01-04 17:20:00,26.3,17.5,29.98,SSW,193,4.0,10.0,69,0.00,,---,0.00,VWS V14.01,2013-01-04 23:20:00,
2013-01-04 17:25:00,26.2,17.4,29.98,South,191,4.0,10.0,69,0.00,,---,0.00,VWS V14.01,2013-01-04 23:25:00,
2013-01-04 17:30:00,26.2,17.4,29.98,South,170,4.0,4.0,69,0.00,,---,0.00,VWS V14.01,2013-01-04 23:30:00,
2013-01-04 17:35:00,26.1,17.3,29.98,SSW,211,5.0,9.0,69,0.00,,---,0.00,VWS V14.01,2013-01-04 23:35:00,
2013-01-04 17:40:00,26.0,17.6,29.98,SSW,204,4.0,9.0,70,0.00,,---,0.00,VWS V14.01,2013-01-04 23:40:00,
2013-01-04 17:45:00,25.9,17.5,29.99,SSW,202,4.0,9.0,70,0.00,,---,0.00,VWS V14.01,2013-01-04 23:45:00,
2013-01-04 17:50:00,25.8,17.4,29.99,SSW,202,9.0,9.0,70,0.00,,---,0.00,VWS V14.01,2013-01-04 23:50:00,
2013-01-04 17:55:00,25.8,17.4,29.99,SSW,194,5.0,9.0,70,0.00,,---,0.00,VWS V14.01,2013-01-04 23:55:00,
2013-01-04 18:00:00,25.6,17.2,29.99,SSW,196,5.0,5.0,70,0.00,,---,0.00,VWS V14.01,2013-01-05 00:00:00,
2013-01-04 18:05:00,25.4,17.3,29.99,SSW,192,4.0,4.0,71,0.00,,---,0.00,VWS V14.01,2013-01-05 00:05:00,
2013-01-04 18:11:00,25.3,17.2,29.99,SSW,195,3.0,5.0,71,0.00,,---,0.00,VWS V14.01,2013-01-05 00:11:00,
2013-01-04 18:16:00,25.3,17.2,29.99,SSW,196,4.0,5.0,71,0.00,,---,0.00,VWS V14.01,2013-01-05 00:16:00,
2013-01-04 18:21:00,25.2,17.1,29.99,SSW,204,2.0,5.0,71,0.00,,---,0.00,VWS V14.01,2013-01-05 00:21:00,
2013-01-04 18:26:00,25.1,17.0,29.99,SSW,198,2.0,5.0,71,0.00,,---,0.00,VWS V14.01,2013-01-05 00:26:00,
2013-01-04 18:31:00,25.0,17.3,29.99,South,188,1.0,2.0,72,0.00,,---,0.00,VWS V14.01,2013-01-05 00:31:00,
2013-01-04 18:36:00,24.9,17.2,29.99,SSW,199,2.0,4.0,72,0.00,,---,0.00,VWS V14.01,2013-01-05 00:36:00,
2013-01-04 18:41:00,24.7,17.0,30.00,SSW,199,0.0,4.0,72,0.00,,---,0.00,VWS V14.01,2013-01-05 00:41:00,
2013-01-04 18:46:00,24.5,16.8,30.00,SSW,199,0.0,4.0,72,0.00,,---,0.00,VWS V14.01,2013-01-05 00:46:00,
2013-01-04 18:51:00,24.3,16.9,30.00,SSW,199,1.0,4.0,73,0.00,,---,0.00,VWS V14.01,2013-01-05 00:51:00,
2013-01-04 18:56:00,24.1,16.7,30.00,SSW,200,0.0,4.0,73,0.00,,---,0.00,VWS V14.01,2013-01-05 00:56:00,
2013-01-04 19:01:00,24.1,16.7,30.00,SSW,200,0.0,2.0,73,0.00,,---,0.00,VWS V14.01,2013-01-05 01:01:00,
2013-01-04 19:06:00,24.0,16.9,30.00,SSW,199,2.0,3.0,74,0.00,,---,0.00,VWS V14.01,2013-01-05 01:06:00,
2013-01-04 19:13:00,24.0,16.9,30.00,SSW,200,1.0,3.0,74,0.00,,---,0.00,VWS V14.01,2013-01-05 01:13:00,
2013-01-04 19:18:00,24.1,17.0,30.00,SSW,201,0.0,4.0,74,0.00,,---,0.00,VWS V14.01,2013-01-05 01:18:00,
2013-01-04 19:23:00,24.1,16.7,30.00,SSW,201,0.0,4.0,73,0.00,,---,0.00,VWS V14.01,2013-01-05 01:23:00,
2013-01-04 19:28:00,24.0,16.9,30.00,SSW,200,0.0,4.0,74,0.00,,---,0.00,VWS V14.01,2013-01-05 01:28:00,
2013-01-04 19:33:00,24.0,16.9,30.00,SSW,198,2.0,3.0,74,0.00,,---,0.00,VWS V14.01,2013-01-05 01:33:00,
2013-01-04 19:38:00,23.9,16.8,30.00,SSW,194,2.0,3.0,74,0.00,,---,0.00,VWS V14.01,2013-01-05 01:38:00,
2013-01-04 19:43:00,23.9,16.8,30.00,South,190,2.0,4.0,74,0.00,,---,0.00,VWS V14.01,2013-01-05 01:43:00,
2013-01-04 19:48:00,23.7,16.6,30.00,South,186,2.0,5.0,74,0.00,,---,0.00,VWS V14.01,2013-01-05 01:48:00,
2013-01-04 19:53:00,23.5,16.5,30.01,SSW,209,5.0,6.0,74,0.00,,---,0.00,VWS V14.01,2013-01-05 01:53:00,
2013-01-04 19:58:00,23.2,16.5,30.01,SSE,165,0.0,6.0,75,0.00,,---,0.00,VWS V14.01,2013-01-05 01:58:00,
2013-01-04 20:03:00,22.9,16.2,30.00,South,170,1.0,4.0,75,0.00,,---,0.00,VWS V14.01,2013-01-05 02:03:00,
2013-01-04 20:08:00,22.8,16.4,30.00,South,171,2.0,5.0,76,0.00,,---,0.00,VWS V14.01,2013-01-05 02:08:00,
2013-01-04 20:13:00,22.8,16.4,30.00,South,175,2.0,5.0,76,0.00,,---,0.00,VWS V14.01,2013-01-05 02:13:00,
2013-01-04 20:18:00,22.8,16.4,30.00,South,177,3.0,5.0,76,0.00,,---,0.00,VWS V14.01,2013-01-05 02:18:00,
2013-01-04 20:23:00,22.9,16.5,30.00,South,190,2.0,5.0,76,0.00,,---,0.00,VWS V14.01,2013-01-05 02:23:00,
2013-01-04 20:28:00,22.9,16.5,30.00,South,183,3.0,5.0,76,0.00,,---,0.00,VWS V14.01,2013-01-05 02:28:00,
2013-01-04 20:33:00,22.8,16.4,30.00,South,172,0.0,0.0,76,0.00,,---,0.00,VWS V14.01,2013-01-05 02:33:00,
2013-01-04 20:38:00,22.6,16.5,30.00,South,178,3.0,3.0,77,0.00,,---,0.00,VWS V14.01,2013-01-05 02:38:00,
2013-01-04 20:43:00,22.5,16.4,30.00,South,173,2.0,4.0,77,0.00,,---,0.00,VWS V14.01,2013-01-05 02:43:00,
2013-01-04 20:48:00,22.4,16.3,30.00,SSE,161,4.0,5.0,77,0.00,,---,0.00,VWS V14.01,2013-01-05 02:48:00,
2013-01-04 20:53:00,22.3,16.2,30.00,SSW,203,0.0,5.0,77,0.00,,---,0.00,VWS V14.01,2013-01-05 02:53:00,
2013-01-04 20:58:00,22.1,16.3,30.00,South,171,0.0,5.0,78,0.00,,---,0.00,VWS V14.01,2013-01-05 02:58:00,
2013-01-04 21:03:00,22.1,16.3,30.00,South,184,0.0,4.0,78,0.00,,---,0.00,VWS V14.01,2013-01-05 03:03:00,
2013-01-04 21:08:00,22.1,16.3,29.99,South,177,1.0,4.0,78,0.00,,---,0.00,VWS V14.01,2013-01-05 03:08:00,
2013-01-04 21:13:00,22.1,16.3,29.99,South,176,0.0,4.0,78,0.00,,---,0.00,VWS V14.01,2013-01-05 03:13:00,
2013-01-04 21:18:00,22.1,16.3,29.99,South,177,0.0,4.0,78,0.00,,---,0.00,VWS V14.01,2013-01-05 03:18:00,
2013-01-04 21:23:00,22.0,16.2,30.00,South,178,0.0,4.0,78,0.00,,---,0.00,VWS V14.01,2013-01-05 03:23:00,
2013-01-04 21:28:00,21.6,15.8,29.99,SSE,167,0.0,4.0,78,0.00,,---,0.00,VWS V14.01,2013-01-05 03:28:00,
2013-01-04 21:33:00,21.3,15.8,29.99,SSE,167,0.0,0.0,79,0.00,,---,0.00,VWS V14.01,2013-01-05 03:33:00,
2013-01-04 21:38:00,21.1,15.9,29.99,SSE,167,0.0,1.0,80,0.00,,---,0.00,VWS V14.01,2013-01-05 03:38:00,
2013-01-04 21:43:00,20.9,15.7,30.00,SSE,167,0.0,1.0,80,0.00,,---,0.00,VWS V14.01,2013-01-05 03:43:00,
2013-01-04 21:48:00,20.6,15.7,30.00,South,169,0.0,1.0,81,0.00,,---,0.00,VWS V14.01,2013-01-05 03:48:00,
2013-01-04 21:53:00,20.5,15.6,30.00,South,170,0.0,1.0,81,0.00,,---,0.00,VWS V14.01,2013-01-05 03:53:00,
2013-01-04 21:58:00,20.4,15.8,30.00,South,171,2.0,2.0,82,0.00,,---,0.00,VWS V14.01,2013-01-05 03:58:00,
2013-01-04 22:03:00,20.6,16.0,30.00,South,172,3.0,3.0,82,0.00,,---,0.00,VWS V14.01,2013-01-05 04:03:00,
2013-01-04 22:08:00,20.6,15.7,30.00,South,172,0.0,4.0,81,0.00,,---,0.00,VWS V14.01,2013-01-05 04:08:00,
2013-01-04 22:13:00,20.4,15.5,30.00,South,171,0.0,4.0,81,0.00,,---,0.00,VWS V14.01,2013-01-05 04:13:00,
2013-01-04 22:18:00,20.2,15.3,30.00,South,172,0.0,4.0,81,0.00,,---,0.00,VWS V14.01,2013-01-05 04:18:00,
2013-01-04 22:23:00,19.9,15.3,30.00,South,172,0.0,4.0,82,0.00,,---,0.00,VWS V14.01,2013-01-05 04:23:00,
2013-01-04 22:28:00,19.7,15.4,30.00,South,169,0.0,4.0,83,0.00,,---,0.00,VWS V14.01,2013-01-05 04:28:00,
2013-01-04 22:33:00,19.6,15.3,30.01,South,169,0.0,1.0,83,0.00,,---,0.00,VWS V14.01,2013-01-05 04:33:00,
2013-01-04 22:38:00,19.4,15.1,30.01,South,171,0.0,1.0,83,0.00,,---,0.00,VWS V14.01,2013-01-05 04:38:00,
2013-01-04 22:43:00,19.4,15.4,30.01,South,169,0.0,1.0,84,0.00,,---,0.00,VWS V14.01,2013-01-05 04:43:00,
2013-01-04 22:48:00,19.4,15.4,30.01,SSE,168,2.0,2.0,84,0.00,,---,0.00,VWS V14.01,2013-01-05 04:48:00,
2013-01-04 22:53:00,19.3,15.3,30.01,South,169,0.0,2.0,84,0.00,,---,0.00,VWS V14.01,2013-01-05 04:53:00,
2013-01-04 22:58:00,19.5,15.5,30.01,South,188,2.0,5.0,84,0.00,,---,0.00,VWS V14.01,2013-01-05 04:58:00,
2013-01-04 23:00:00,19.6,15.6,30.01,SW,214,6.0,6.0,84,0.00,,---,0.00,VWS V14.01,2013-01-05 05:00:00,
2013-01-04 23:01:00,19.6,15.6,30.01,South,182,5.0,6.0,84,0.00,,---,0.00,VWS V14.01,2013-01-05 05:01:00,
2013-01-04 23:02:00,19.7,15.7,30.01,SSE,167,3.0,6.0,84,0.00,,---,0.00,VWS V14.01,2013-01-05 05:02:00,
2013-01-04 23:07:00,19.7,15.7,30.02,South,183,4.0,6.0,84,0.00,,---,0.00,VWS V14.01,2013-01-05 05:07:00,
2013-01-04 23:12:00,19.6,15.6,30.02,South,185,2.0,6.0,84,0.00,,---,0.00,VWS V14.01,2013-01-05 05:12:00,
2013-01-04 23:17:00,19.3,15.3,30.01,South,185,0.0,6.0,84,0.00,,---,0.00,VWS V14.01,2013-01-05 05:17:00,
2013-01-04 23:22:00,19.2,15.2,30.02,South,188,1.0,6.0,84,0.00,,---,0.00,VWS V14.01,2013-01-05 05:22:00,
2013-01-04 23:27:00,19.3,15.5,30.02,South,191,1.0,6.0,85,0.00,,---,0.00,VWS V14.01,2013-01-05 05:27:00,
2013-01-04 23:32:00,19.3,15.3,30.02,SSW,200,2.0,4.0,84,0.00,,---,0.00,VWS V14.01,2013-01-05 05:32:00,
2013-01-04 23:37:00,19.2,15.2,30.01,South,190,0.0,4.0,84,0.00,,---,0.00,VWS V14.01,2013-01-05 05:37:00,
2013-01-04 23:42:00,19.2,15.2,30.01,South,190,1.0,4.0,84,0.00,,---,0.00,VWS V14.01,2013-01-05 05:42:00,
2013-01-04 23:47:00,19.1,15.1,30.01,South,190,0.0,4.0,84,0.00,,---,0.00,VWS V14.01,2013-01-05 05:47:00,
2013-01-04 23:52:00,19.1,15.1,30.01,SSW,192,0.0,4.0,84,0.00,,---,0.00,VWS V14.01,2013-01-05 05:52:00,
2013-01-04 23:57:00,19.1,15.1,30.01,SSW,192,0.0,4.0,84,0.00,,---,0.00,VWS V14.01,2013-01-05 05:57:00,